Time;durP1;ratioP1;P1;durP2;ratioP2;P2;SDS_P1;SDS_P2;PMS_P1;PMS_P2;Temp;Humidity;BMP_temperature;BMP_pressure;BME280_temperature;BME280_humidity;BME280_pressure;Samples;Min_cycle;Max_cycle;Signal;HPM_P1;HPM_P2
2023/09/26 00:00:20;;;;;;;15.32;12.63;;;19.20;65.00;;;;;;5010702;28;114166;-78
2023/09/26 00:02:49;;;;;;;13.07;11.68;;;19.30;63.90;;;;;;5027650;28;114376;-79
2023/09/26 00:05:18;;;;;;;14.63;12.30;;;19.30;63.40;;;;;;5010167;28;115018;-78
2023/09/26 00:07:48;;;;;;;14.27;11.93;;;19.30;63.90;;;;;;5027242;28;115896;-79
2023/09/26 00:10:16;;;;;;;16.27;13.45;;;19.30;63.40;;;;;;5028788;28;114446;-79
2023/09/26 00:12:44;;;;;;;12.85;11.32;;;19.30;64.10;;;;;;5028824;28;114119;-79
2023/09/26 00:15:11;;;;;;;18.80;14.90;;;19.30;63.50;;;;;;5028163;28;114916;-78
2023/09/26 00:17:39;;;;;;;13.90;11.73;;;19.30;64.20;;;;;;5027159;28;115949;-79
2023/09/26 00:20:10;;;;;;;22.40;17.55;;;19.30;63.30;;;;;;5027940;28;114586;-78
2023/09/26 00:22:37;;;;;;;14.15;12.65;;;19.30;65.00;;;;;;5028203;28;114405;-79
2023/09/26 00:25:05;;;;;;;13.35;11.95;;;19.30;63.70;;;;;;5008515;28;117351;-79
2023/09/26 00:27:33;;;;;;;22.70;19.88;;;19.30;63.40;;;;;;5008775;28;115901;-79
2023/09/26 00:30:00;;;;;;;22.33;19.27;;;19.30;65.50;;;;;;5010492;28;114481;-79
2023/09/26 00:32:28;;;;;;;21.23;17.95;;;19.30;66.10;;;;;;5010370;28;114409;-79
2023/09/26 00:34:55;;;;;;;21.05;16.40;;;19.20;65.80;;;;;;5008342;28;117432;-79
2023/09/26 00:37:22;;;;;;;25.42;21.13;;;19.20;65.90;;;;;;5009322;28;115160;-79
2023/09/26 00:39:50;;;;;;;14.18;12.68;;;19.10;66.90;;;;;;5010123;28;114280;-78
2023/09/26 00:42:17;;;;;;;12.90;11.20;;;19.10;65.10;;;;;;5027360;28;114430;-78
2023/09/26 00:44:45;;;;;;;17.25;13.40;;;19.00;64.30;;;;;;4991614;28;115808;-78
2023/09/26 00:47:12;;;;;;;12.02;10.65;;;19.10;64.50;;;;;;5027047;28;114908;-78
2023/09/26 00:49:39;;;;;;;13.63;12.10;;;19.10;64.10;;;;;;5010036;28;114215;-79
2023/09/26 00:52:06;;;;;;;18.95;14.70;;;19.10;63.90;;;;;;5028231;28;114191;-78
2023/09/26 00:54:33;;;;;;;21.98;17.27;;;19.20;64.90;;;;;;5027008;28;115535;-79
2023/09/26 00:57:01;;;;;;;24.00;18.67;;;19.20;65.50;;;;;;5026730;28;115974;-79
2023/09/26 00:59:28;;;;;;;23.42;17.05;;;19.30;66.30;;;;;;5009803;28;115095;-79
2023/09/26 01:01:55;;;;;;;14.00;11.93;;;19.30;65.90;;;;;;5028178;28;114180;-78
2023/09/26 01:04:22;;;;;;;20.88;17.00;;;19.20;64.50;;;;;;5008933;28;114834;-79
2023/09/26 01:06:50;;;;;;;25.70;20.08;;;19.20;66.20;;;;;;5008964;28;114664;-79
2023/09/26 01:09:17;;;;;;;15.93;12.98;;;19.10;66.90;;;;;;5027268;28;114293;-79
2023/09/26 01:11:44;;;;;;;26.38;19.33;;;19.00;65.40;;;;;;4992908;28;114422;-79
2023/09/26 01:14:11;;;;;;;14.93;13.38;;;19.00;66.80;;;;;;4992050;28;114818;-77
2023/09/26 01:16:38;;;;;;;19.52;16.10;;;18.90;65.80;;;;;;5026654;28;114966;-81
2023/09/26 01:19:06;;;;;;;14.57;12.85;;;18.80;66.30;;;;;;5008056;28;114640;-78
2023/09/26 01:21:33;;;;;;;25.15;19.10;;;18.80;65.80;;;;;;5009629;28;114449;-79
2023/09/26 01:24:00;;;;;;;21.55;18.40;;;18.80;67.80;;;;;;5008472;28;114829;-79
2023/09/26 01:26:36;;;;;;;13.45;11.45;;;18.70;67.40;;;;;;5026843;28;114581;-80
2023/09/26 01:29:04;;;;;;;27.40;22.40;;;18.70;66.00;;;;;;5009483;28;114155;-79
2023/09/26 01:31:35;;;;;;;30.10;22.45;;;18.70;68.50;;;;;;5027368;28;114359;-79
2023/09/26 01:34:03;;;;;;;23.70;19.35;;;18.60;68.80;;;;;;5035904;28;115206;-80
2023/09/26 01:36:31;;;;;;;27.02;19.17;;;18.50;69.00;;;;;;5006775;28;114118;-79
2023/09/26 01:38:59;;;;;;;21.88;17.98;;;18.30;69.20;;;;;;5033271;28;114042;-79
2023/09/26 01:41:27;;;;;;;22.38;16.60;;;18.20;69.80;;;;;;5027337;28;114143;-78
2023/09/26 01:43:54;;;;;;;20.17;16.42;;;18.00;70.20;;;;;;4993378;28;114822;-77
2023/09/26 01:46:21;;;;;;;22.92;17.48;;;17.80;70.20;;;;;;5033342;27;115069;-79
2023/09/26 01:48:48;;;;;;;20.98;16.15;;;17.70;70.80;;;;;;5010389;27;114072;-79
2023/09/26 01:51:16;;;;;;;20.13;15.85;;;17.60;71.00;;;;;;5032042;27;114117;-79
2023/09/26 01:53:43;;;;;;;18.13;15.23;;;17.60;71.10;;;;;;5046457;27;114889;-79
2023/09/26 01:56:10;;;;;;;13.40;11.80;;;17.50;70.90;;;;;;5047695;27;114708;-79
2023/09/26 01:58:37;;;;;;;17.17;13.68;;;17.50;69.90;;;;;;5047999;27;114290;-79
2023/09/26 02:01:04;;;;;;;15.27;12.88;;;17.60;70.50;;;;;;5029396;27;114253;-79
2023/09/26 02:03:31;;;;;;;16.40;13.65;;;17.50;70.10;;;;;;5028240;27;114946;-79
2023/09/26 02:05:58;;;;;;;15.23;12.13;;;17.50;70.70;;;;;;5046412;27;114554;-79
2023/09/26 02:08:26;;;;;;;15.10;12.80;;;17.40;70.60;;;;;;5048013;27;114230;-79
2023/09/26 02:10:53;;;;;;;17.52;13.43;;;17.50;70.40;;;;;;5029635;27;114357;-78
2023/09/26 02:13:20;;;;;;;17.90;13.55;;;17.70;70.30;;;;;;5046093;27;115352;-79
2023/09/26 02:15:48;;;;;;;15.05;12.07;;;17.70;70.20;;;;;;5028569;27;114622;-79
2023/09/26 02:18:15;;;;;;;16.83;13.73;;;17.70;69.30;;;;;;5024648;28;114352;-79
2023/09/26 02:20:42;;;;;;;12.55;11.07;;;17.80;69.40;;;;;;5026709;27;114080;-79
2023/09/26 02:23:10;;;;;;;15.43;12.13;;;17.90;68.60;;;;;;5025145;28;115615;-78
2023/09/26 02:25:38;;;;;;;17.75;13.80;;;18.00;68.60;;;;;;5025639;28;114682;-78
2023/09/26 02:28:06;;;;;;;13.75;10.68;;;18.10;68.80;;;;;;4991921;28;114388;-79
2023/09/26 02:30:33;;;;;;;13.43;11.43;;;18.20;67.80;;;;;;5026664;28;114342;-79
2023/09/26 02:33:00;;;;;;;12.80;10.73;;;18.20;67.70;;;;;;5025808;28;115452;-79
2023/09/26 02:35:27;;;;;;;15.80;12.88;;;18.20;67.20;;;;;;5025937;28;114583;-78
2023/09/26 02:37:55;;;;;;;16.55;11.35;;;18.30;68.00;;;;;;5026414;28;114230;-79
2023/09/26 02:40:22;;;;;;;14.70;11.10;;;18.20;67.50;;;;;;5025593;28;114055;-79
2023/09/26 02:42:50;;;;;;;14.70;10.85;;;18.30;67.60;;;;;;5024210;28;115520;-79
2023/09/26 02:45:17;;;;;;;12.95;10.02;;;18.30;67.20;;;;;;5023930;28;116921;-78
2023/09/26 02:47:46;;;;;;;11.13;9.68;;;18.30;66.60;;;;;;5024763;28;114320;-79
2023/09/26 02:50:13;;;;;;;11.52;10.15;;;18.30;67.20;;;;;;5025081;28;114100;-78
2023/09/26 02:52:42;;;;;;;11.45;10.25;;;18.30;66.60;;;;;;5025227;28;115072;-79
2023/09/26 02:55:10;;;;;;;12.43;10.63;;;18.40;66.70;;;;;;5025574;27;114965;-80
2023/09/26 02:57:37;;;;;;;12.60;9.77;;;18.40;66.90;;;;;;5025039;28;114283;-79
2023/09/26 03:00:14;;;;;;;11.77;9.77;;;18.40;66.60;;;;;;5026102;28;114407;-79
2023/09/26 03:02:41;;;;;;;11.40;8.95;;;18.40;67.00;;;;;;5007856;28;116125;-78
2023/09/26 03:05:12;;;;;;;10.05;9.05;;;18.30;66.60;;;;;;5025826;27;114666;-78
2023/09/26 03:07:39;;;;;;;12.75;10.57;;;18.30;66.30;;;;;;5029580;28;114418;-79
2023/09/26 03:10:07;;;;;;;12.90;9.60;;;18.40;66.70;;;;;;5028893;28;114198;-79
2023/09/26 03:12:34;;;;;;;9.55;8.50;;;18.30;66.90;;;;;;5028323;28;115047;-79
2023/09/26 03:15:02;;;;;;;13.30;10.50;;;18.30;66.30;;;;;;5027410;28;115294;-79
2023/09/26 03:17:30;;;;;;;11.52;9.23;;;18.30;67.00;;;;;;5011251;28;114315;-79
2023/09/26 03:19:57;;;;;;;11.85;9.70;;;18.30;66.90;;;;;;5029187;28;114766;-77
2023/09/26 03:22:24;;;;;;;12.45;10.43;;;18.30;66.80;;;;;;5027513;28;115001;-78
2023/09/26 03:24:52;;;;;;;14.63;11.77;;;18.20;67.20;;;;;;5028513;28;114607;-78
2023/09/26 03:27:19;;;;;;;12.98;11.52;;;17.90;67.80;;;;;;5028036;28;114297;-79
2023/09/26 03:29:49;;;;;;;11.93;9.82;;;17.80;68.10;;;;;;5029733;27;114417;-78
2023/09/26 03:32:17;;;;;;;13.15;10.77;;;17.70;68.10;;;;;;5026881;28;115024;-79
2023/09/26 03:34:44;;;;;;;15.48;12.60;;;17.70;68.40;;;;;;5027079;28;114817;-79
2023/09/26 03:37:11;;;;;;;12.50;9.63;;;17.70;68.80;;;;;;5028608;27;114444;-78
2023/09/26 03:39:38;;;;;;;14.18;11.23;;;17.60;68.60;;;;;;5029077;28;114410;-79
2023/09/26 03:42:05;;;;;;;10.63;8.73;;;17.50;69.30;;;;;;5026535;28;114990;-79
2023/09/26 03:44:32;;;;;;;13.43;9.95;;;17.50;68.80;;;;;;5027971;28;114639;-78
2023/09/26 03:46:59;;;;;;;17.35;13.55;;;17.70;68.90;;;;;;5028573;28;114307;-81
2023/09/26 03:49:26;;;;;;;16.20;12.07;;;17.60;69.90;;;;;;5028974;27;114043;-79
2023/09/26 03:51:53;;;;;;;17.35;13.25;;;17.40;70.00;;;;;;5026549;28;114841;-79
2023/09/26 03:54:21;;;;;;;15.60;11.60;;;17.30;70.80;;;;;;5027006;28;114544;-79
2023/09/26 03:56:48;;;;;;;12.73;10.77;;;17.30;71.10;;;;;;5028753;27;114218;-78
2023/09/26 03:59:15;;;;;;;13.50;10.75;;;17.10;71.20;;;;;;5028666;27;114154;-78
2023/09/26 04:01:43;;;;;;;12.10;9.73;;;17.20;71.70;;;;;;5027345;28;115417;-79
2023/09/26 04:04:10;;;;;;;10.23;8.57;;;17.10;70.90;;;;;;5027751;28;114606;-79
2023/09/26 04:06:38;;;;;;;13.82;10.38;;;17.20;70.60;;;;;;5028618;28;114160;-78
2023/09/26 04:09:05;;;;;;;13.23;10.60;;;17.30;71.00;;;;;;5042638;28;114341;-79
2023/09/26 04:11:33;;;;;;;14.98;12.02;;;17.30;70.60;;;;;;5042573;28;114970;-78
2023/09/26 04:14:00;;;;;;;15.18;11.18;;;17.30;71.20;;;;;;5029010;27;114374;-78
2023/09/26 04:16:27;;;;;;;13.68;10.20;;;17.10;71.20;;;;;;5025186;27;114268;-79
2023/09/26 04:18:54;;;;;;;11.52;10.07;;;17.00;71.70;;;;;;5027588;28;114725;-78
2023/09/26 04:21:21;;;;;;;15.70;11.30;;;17.00;72.00;;;;;;5041381;28;115008;-78
2023/09/26 04:23:49;;;;;;;14.82;10.65;;;17.00;72.20;;;;;;5037135;28;114639;-79
2023/09/26 04:26:17;;;;;;;13.23;9.65;;;17.10;71.70;;;;;;5027391;28;114342;-79
2023/09/26 04:28:45;;;;;;;11.52;9.40;;;17.10;71.50;;;;;;5028688;28;114351;-79
2023/09/26 04:31:16;;;;;;;16.92;11.23;;;17.10;71.20;;;;;;5026554;28;115209;-79
2023/09/26 04:33:45;;;;;;;15.05;12.05;;;17.20;71.40;;;;;;5009832;28;115680;-79
2023/09/26 04:36:12;;;;;;;12.05;8.98;;;17.30;71.30;;;;;;5027295;28;114390;-77
2023/09/26 04:38:39;;;;;;;14.57;10.60;;;17.30;70.40;;;;;;5028856;28;114212;-79
2023/09/26 04:41:06;;;;;;;12.75;10.73;;;17.30;70.60;;;;;;5026375;28;115248;-79
2023/09/26 04:43:34;;;;;;;11.38;9.23;;;17.30;70.40;;;;;;5027575;27;114574;-79
2023/09/26 04:46:02;;;;;;;29.70;20.55;;;17.40;69.70;;;;;;5026843;28;114424;-79
2023/09/26 04:48:29;;;;;;;24.05;17.23;;;17.60;70.30;;;;;;5026973;28;114130;-80
2023/09/26 04:50:56;;;;;;;27.70;19.70;;;17.50;70.10;;;;;;5008831;28;114865;-79
2023/09/26 04:53:23;;;;;;;43.72;29.52;;;17.30;70.30;;;;;;5026043;28;114577;-79
2023/09/26 04:55:50;;;;;;;44.78;32.20;;;17.40;70.90;;;;;;5028000;27;114234;-80
2023/09/26 04:58:18;;;;;;;43.95;30.30;;;17.40;70.90;;;;;;5028240;27;114315;-79
2023/09/26 05:00:45;;;;;;;38.97;27.60;;;17.30;71.00;;;;;;5026867;28;115127;-79
2023/09/26 05:03:12;;;;;;;33.53;24.90;;;17.30;70.90;;;;;;5027710;28;114727;-79
2023/09/26 05:05:39;;;;;;;41.28;29.17;;;17.40;70.80;;;;;;5028641;28;114062;-78
2023/09/26 05:08:06;;;;;;;29.80;25.05;;;17.40;70.90;;;;;;5026656;28;114495;-78
2023/09/26 05:10:37;;;;;;;22.23;17.17;;;17.40;70.60;;;;;;4992454;28;116573;-79
2023/09/26 05:13:08;;;;;;;28.50;21.90;;;17.30;70.50;;;;;;5026448;28;115881;-78
2023/09/26 05:15:35;;;;;;;35.33;25.77;;;17.40;70.50;;;;;;5027890;28;114367;-78
2023/09/26 05:18:02;;;;;;;43.97;29.10;;;17.50;70.60;;;;;;5036989;27;115199;-78
2023/09/26 05:20:30;;;;;;;33.05;21.27;;;17.60;70.60;;;;;;5046130;27;115021;-78
2023/09/26 05:23:00;;;;;;;33.13;22.30;;;17.50;70.30;;;;;;5029230;27;115000;-78
2023/09/26 05:25:27;;;;;;;30.10;22.08;;;17.50;70.40;;;;;;5047891;27;114791;-78
2023/09/26 05:27:55;;;;;;;21.92;17.30;;;17.50;70.40;;;;;;5046960;27;114295;-80
2023/09/26 05:30:22;;;;;;;24.77;18.45;;;17.60;69.90;;;;;;5012152;27;115013;-78
2023/09/26 05:32:49;;;;;;;21.42;14.98;;;17.70;69.60;;;;;;5029525;27;114630;-79
2023/09/26 05:35:16;;;;;;;16.42;11.93;;;17.80;69.20;;;;;;5028888;27;114283;-77
2023/09/26 05:37:44;;;;;;;18.88;13.65;;;17.80;68.70;;;;;;4996239;27;114090;-77
2023/09/26 05:40:11;;;;;;;17.50;12.30;;;17.90;68.60;;;;;;5046454;27;114867;-79
2023/09/26 05:42:38;;;;;;;21.00;13.85;;;17.80;69.10;;;;;;5028838;27;114854;-77
2023/09/26 05:45:07;;;;;;;19.98;13.38;;;17.60;69.70;;;;;;5028677;27;114114;-78
2023/09/26 05:47:34;;;;;;;23.60;15.63;;;17.50;70.20;;;;;;5047382;27;114042;-78
2023/09/26 05:50:03;;;;;;;22.60;14.95;;;17.40;70.50;;;;;;5028686;27;114905;-78
2023/09/26 05:52:30;;;;;;;23.98;15.52;;;17.30;70.70;;;;;;5027467;27;115869;-79
2023/09/26 05:54:57;;;;;;;19.60;12.65;;;17.30;70.90;;;;;;5047418;27;114040;-79
2023/09/26 05:57:27;;;;;;;19.45;14.27;;;17.30;70.30;;;;;;5047579;27;114359;-79
2023/09/26 05:59:54;;;;;;;15.52;10.93;;;17.50;70.40;;;;;;5028175;27;116189;-79
2023/09/26 06:02:21;;;;;;;17.52;11.98;;;17.40;70.00;;;;;;5028096;27;114942;-79
2023/09/26 06:04:48;;;;;;;17.02;12.55;;;17.40;70.30;;;;;;5028461;27;114271;-79
2023/09/26 06:07:16;;;;;;;12.65;10.43;;;17.50;70.40;;;;;;5046914;27;114268;-77
2023/09/26 06:09:43;;;;;;;15.23;10.90;;;17.60;69.70;;;;;;5045969;27;114960;-79
2023/09/26 06:12:30;;;;;;;13.82;10.50;;;17.80;69.70;;;;;;5030548;27;116344;-78
2023/09/26 06:14:57;;;;;;;12.15;9.05;;;17.80;69.70;;;;;;5046897;27;114083;-79
2023/09/26 06:17:24;;;;;;;11.93;9.23;;;18.00;69.50;;;;;;5046589;27;113988;-79
2023/09/26 06:19:51;;;;;;;11.73;8.05;;;18.20;68.90;;;;;;5045584;27;114972;-80
2023/09/26 06:22:19;;;;;;;10.95;9.05;;;18.40;68.40;;;;;;5028269;27;114679;-78
2023/09/26 06:24:47;;;;;;;11.63;8.95;;;18.50;67.70;;;;;;5012164;27;114260;-77
2023/09/26 06:27:14;;;;;;;12.05;8.98;;;18.40;67.80;;;;;;5046567;27;114392;-79
2023/09/26 06:29:41;;;;;;;9.98;7.70;;;18.40;67.00;;;;;;5045172;27;115391;-78
2023/09/26 06:32:08;;;;;;;12.60;8.70;;;18.40;67.30;;;;;;5045675;27;114770;-79
2023/09/26 06:34:39;;;;;;;11.77;8.95;;;18.40;67.50;;;;;;5046501;27;114256;-78
2023/09/26 06:37:06;;;;;;;13.48;9.48;;;18.20;67.70;;;;;;5028284;27;114154;-78
2023/09/26 06:39:33;;;;;;;12.90;9.25;;;18.10;67.80;;;;;;5044927;27;114895;-79
2023/09/26 06:42:01;;;;;;;11.75;8.73;;;18.20;67.70;;;;;;5045706;27;114688;-79
2023/09/26 06:44:29;;;;;;;11.20;8.23;;;18.40;67.00;;;;;;5046656;27;114095;-80
2023/09/26 06:46:56;;;;;;;10.73;8.20;;;18.60;67.00;;;;;;5047019;27;114134;-79
2023/09/26 06:49:23;;;;;;;12.27;8.30;;;18.80;65.70;;;;;;5027448;27;116040;-79
2023/09/26 06:51:51;;;;;;;12.68;9.45;;;19.00;65.90;;;;;;5045796;27;114845;-78
2023/09/26 06:54:18;;;;;;;14.85;8.63;;;19.00;65.90;;;;;;5046334;27;114160;-78
2023/09/26 06:56:45;;;;;;;10.45;8.48;;;19.00;65.40;;;;;;5046683;27;114245;-79
2023/09/26 06:59:12;;;;;;;9.45;7.70;;;19.00;66.00;;;;;;5028775;27;114796;-79
2023/09/26 07:01:40;;;;;;;10.57;7.90;;;19.00;65.60;;;;;;5046348;27;114990;-79
2023/09/26 07:04:13;;;;;;;10.07;7.93;;;19.00;65.60;;;;;;5046448;27;114315;-78
2023/09/26 07:06:41;;;;;;;10.85;7.50;;;19.10;65.70;;;;;;5014212;27;114024;-79
2023/09/26 07:09:12;;;;;;;10.82;8.05;;;19.20;65.00;;;;;;5045777;27;114906;-78
2023/09/26 07:11:40;;;;;;;9.70;8.15;;;19.20;65.10;;;;;;5046148;27;114584;-79
2023/09/26 07:14:07;;;;;;;9.85;7.93;;;19.20;65.30;;;;;;5046646;27;114227;-78
2023/09/26 07:16:34;;;;;;;9.88;8.25;;;19.20;65.00;;;;;;5046248;27;114333;-78
2023/09/26 07:19:02;;;;;;;10.30;8.07;;;19.20;64.80;;;;;;4992818;27;114954;-79
2023/09/26 07:21:29;;;;;;;11.32;7.63;;;19.30;64.70;;;;;;5028076;27;114582;-78
2023/09/26 07:23:56;;;;;;;11.15;8.25;;;19.40;64.20;;;;;;5046545;27;114288;-79
2023/09/26 07:26:24;;;;;;;11.93;8.57;;;19.50;64.30;;;;;;5046289;27;114070;-79
2023/09/26 07:28:53;;;;;;;11.13;8.55;;;19.70;63.70;;;;;;5045228;27;115413;-79
2023/09/26 07:31:21;;;;;;;12.10;8.63;;;19.80;63.30;;;;;;5045025;27;114805;-79
2023/09/26 07:33:48;;;;;;;10.75;7.78;;;19.80;63.80;;;;;;5011274;27;114201;-79
2023/09/26 07:36:16;;;;;;;10.02;8.63;;;19.90;63.00;;;;;;5012025;27;114270;-79
2023/09/26 07:38:44;;;;;;;10.30;7.85;;;19.90;62.90;;;;;;5010524;27;114992;-78
2023/09/26 07:41:11;;;;;;;11.48;8.05;;;20.00;62.70;;;;;;5027408;27;114861;-80
2023/09/26 07:43:38;;;;;;;10.85;7.18;;;20.00;63.10;;;;;;5027237;27;114303;-79
2023/09/26 07:46:05;;;;;;;13.50;8.65;;;20.10;62.30;;;;;;5027970;27;114555;-79
2023/09/26 07:48:34;;;;;;;10.13;7.65;;;20.10;63.10;;;;;;5045179;27;115268;-79
2023/09/26 07:51:05;;;;;;;8.38;7.15;;;20.20;62.40;;;;;;5046099;27;114767;-79
2023/09/26 07:53:32;;;;;;;12.75;9.02;;;20.10;62.20;;;;;;5048930;27;114276;-79
2023/09/26 07:55:59;;;;;;;10.65;8.50;;;20.20;62.80;;;;;;5049079;27;114411;-78
2023/09/26 07:58:26;;;;;;;11.15;9.55;;;20.20;62.80;;;;;;5048134;27;114922;-78
2023/09/26 08:00:54;;;;;;;11.85;8.43;;;20.20;62.90;;;;;;5029868;27;114964;-79
2023/09/26 08:03:21;;;;;;;10.95;8.60;;;20.10;62.90;;;;;;5014803;27;114589;-79
2023/09/26 08:05:51;;;;;;;10.98;7.68;;;20.00;62.80;;;;;;5031114;27;114216;-79
2023/09/26 08:08:18;;;;;;;13.20;7.65;;;20.10;62.40;;;;;;5012503;27;114608;-79
2023/09/26 08:10:45;;;;;;;10.38;7.70;;;20.20;62.50;;;;;;5047773;27;114804;-79
2023/09/26 08:13:15;;;;;;;11.05;8.13;;;20.20;62.60;;;;;;5048781;27;114111;-79
2023/09/26 08:15:42;;;;;;;13.68;8.43;;;20.20;62.90;;;;;;5048442;27;114171;-79
2023/09/26 08:18:11;;;;;;;12.77;8.38;;;20.20;63.30;;;;;;5029536;27;115131;-78
2023/09/26 08:20:38;;;;;;;11.82;8.88;;;20.30;63.30;;;;;;5047482;27;114940;-79
2023/09/26 08:23:06;;;;;;;11.35;8.40;;;20.30;62.80;;;;;;5048424;27;114090;-79
2023/09/26 08:25:34;;;;;;;11.48;8.93;;;20.30;63.00;;;;;;5014261;27;114338;-79
2023/09/26 08:28:01;;;;;;;11.15;8.57;;;20.40;63.00;;;;;;5047118;27;115452;-79
2023/09/26 08:30:29;;;;;;;10.80;7.88;;;20.50;62.90;;;;;;5029446;27;114618;-78
2023/09/26 08:32:56;;;;;;;12.52;8.55;;;20.50;62.60;;;;;;5013442;27;114052;-78
2023/09/26 08:35:23;;;;;;;12.40;8.15;;;20.60;62.80;;;;;;5047960;27;114536;-78
2023/09/26 08:37:50;;;;;;;9.70;7.68;;;20.60;62.20;;;;;;5029417;27;114807;-78
2023/09/26 08:40:17;;;;;;;13.85;9.30;;;20.70;62.30;;;;;;5047766;27;114791;-78
2023/09/26 08:42:46;;;;;;;9.32;7.78;;;20.80;62.60;;;;;;4997110;27;114128;-78
2023/09/26 08:45:13;;;;;;;10.18;8.43;;;20.80;62.10;;;;;;5030877;27;114557;-78
2023/09/26 08:47:43;;;;;;;11.68;8.00;;;20.80;62.50;;;;;;5047580;27;115066;-79
2023/09/26 08:50:11;;;;;;;12.07;9.10;;;21.00;62.60;;;;;;5030199;27;115317;-78
2023/09/26 08:52:38;;;;;;;12.85;9.73;;;21.00;62.10;;;;;;5030080;27;114169;-78
2023/09/26 08:55:05;;;;;;;14.23;11.10;;;21.20;63.00;;;;;;5030509;27;114152;-78
2023/09/26 08:57:34;;;;;;;16.20;12.13;;;21.30;62.70;;;;;;5046973;27;114847;-78
2023/09/26 09:00:02;;;;;;;15.65;12.02;;;21.30;62.70;;;;;;5029535;27;114624;-79
2023/09/26 09:02:31;;;;;;;18.15;11.45;;;21.30;62.20;;;;;;5046027;27;114122;-79
2023/09/26 09:04:59;;;;;;;14.50;11.77;;;21.30;62.50;;;;;;5030396;27;114143;-79
2023/09/26 09:07:27;;;;;;;11.68;9.63;;;21.30;62.20;;;;;;5029126;27;115530;-79
2023/09/26 09:10:10;;;;;;;15.82;12.63;;;21.30;61.20;;;;;;5046338;27;114714;-78
2023/09/26 09:12:40;;;;;;;16.13;12.77;;;21.40;62.70;;;;;;5031023;27;114178;-78
2023/09/26 09:15:16;;;;;;;18.63;13.50;;;21.50;62.30;;;;;;5048168;27;114335;-78
2023/09/26 09:17:43;;;;;;;20.88;13.95;;;21.60;62.20;;;;;;5046462;27;114843;-79
2023/09/26 09:20:11;;;;;;;21.70;15.13;;;21.70;62.60;;;;;;5028902;27;114584;-78
2023/09/26 09:22:40;;;;;;;17.90;14.85;;;21.70;62.20;;;;;;5012843;27;114221;-79
2023/09/26 09:25:07;;;;;;;20.52;13.90;;;21.70;62.10;;;;;;5013148;27;114310;-77
2023/09/26 09:27:38;;;;;;;20.25;14.85;;;21.70;62.20;;;;;;4995136;27;116154;-79
2023/09/26 09:30:11;;;;;;;21.73;15.50;;;21.70;62.30;;;;;;5029167;27;114675;-78
2023/09/26 09:32:42;;;;;;;19.25;14.57;;;21.70;62.70;;;;;;5047975;27;114379;-78
2023/09/26 09:35:10;;;;;;;16.30;13.07;;;21.70;62.10;;;;;;5013473;27;114121;-78
2023/09/26 09:37:37;;;;;;;18.23;14.52;;;21.70;61.70;;;;;;5027951;27;115514;-78
2023/09/26 09:40:05;;;;;;;18.85;14.02;;;21.70;62.80;;;;;;5047189;27;115108;-79
2023/09/26 09:42:32;;;;;;;17.20;13.60;;;21.80;62.60;;;;;;5030094;27;114164;-79
2023/09/26 09:45:00;;;;;;;20.35;14.93;;;21.70;62.90;;;;;;5046786;27;114269;-78
2023/09/26 09:47:29;;;;;;;23.10;17.00;;;21.80;62.30;;;;;;5046258;27;114916;-79
2023/09/26 09:49:59;;;;;;;19.65;14.10;;;21.80;62.50;;;;;;4995024;27;116165;-78
2023/09/26 09:52:26;;;;;;;18.55;14.13;;;21.80;61.60;;;;;;5012524;27;114186;-78
2023/09/26 09:54:53;;;;;;;19.27;15.60;;;21.80;61.40;;;;;;5011925;27;114253;-79
2023/09/26 09:57:22;;;;;;;19.90;14.55;;;21.80;61.70;;;;;;5027223;27;117635;-79
2023/09/26 09:59:50;;;;;;;18.08;13.05;;;21.80;61.80;;;;;;5028343;27;115015;-79
2023/09/26 10:02:17;;;;;;;17.85;13.45;;;21.80;61.60;;;;;;5029376;27;114058;-79
2023/09/26 10:04:47;;;;;;;15.52;12.18;;;21.80;62.00;;;;;;5029445;27;114273;-78
2023/09/26 10:07:17;;;;;;;15.00;11.32;;;21.80;62.40;;;;;;5028666;27;115136;-79
2023/09/26 10:09:45;;;;;;;13.05;10.80;;;21.80;62.20;;;;;;5028569;27;114636;-79
2023/09/26 10:12:12;;;;;;;14.77;11.07;;;21.80;62.30;;;;;;5012068;27;114355;-79
2023/09/26 10:14:39;;;;;;;12.02;10.05;;;21.90;62.60;;;;;;5044854;27;114293;-78
2023/09/26 10:17:06;;;;;;;15.23;11.23;;;22.00;61.50;;;;;;5045621;27;115371;-78
2023/09/26 10:19:34;;;;;;;12.55;10.73;;;22.10;62.10;;;;;;5045535;27;116389;-77
2023/09/26 10:22:20;;;;;;;13.55;11.20;;;22.10;61.60;;;;;;5046813;27;114334;-78
2023/09/26 10:24:52;;;;;;;14.98;12.45;;;22.20;61.90;;;;;;5028690;27;114931;-79
2023/09/26 10:27:31;;;;;;;14.90;11.80;;;22.20;61.90;;;;;;5045674;27;115177;-78
2023/09/26 10:30:18;;;;;;;16.42;12.82;;;22.20;61.40;;;;;;5045039;27;115117;-79
2023/09/26 10:32:45;;;;;;;17.40;13.77;;;22.20;62.10;;;;;;5046788;27;114213;-79
2023/09/26 10:35:12;;;;;;;19.42;15.90;;;22.20;62.00;;;;;;5046694;27;114210;-78
2023/09/26 10:37:50;;;;;;;15.45;13.25;;;22.20;62.80;;;;;;5009775;27;116171;-79
2023/09/26 10:40:20;;;;;;;18.85;14.82;;;22.20;62.60;;;;;;5028030;27;114628;-79
2023/09/26 10:42:48;;;;;;;18.42;13.55;;;22.20;62.30;;;;;;5046637;27;114655;-78
2023/09/26 10:45:19;;;;;;;19.27;12.93;;;22.20;62.50;;;;;;5046447;27;114342;-78
2023/09/26 10:47:46;;;;;;;17.02;13.25;;;22.30;62.10;;;;;;5027875;27;114900;-79
2023/09/26 10:50:33;;;;;;;17.48;13.98;;;22.30;61.90;;;;;;5016714;27;114903;-79
2023/09/26 10:53:01;;;;;;;16.17;13.50;;;22.40;62.30;;;;;;5011013;27;114188;-79
2023/09/26 10:55:29;;;;;;;16.15;12.55;;;22.40;62.00;;;;;;5027883;27;114280;-80
2023/09/26 10:57:56;;;;;;;14.95;13.35;;;22.50;61.60;;;;;;5010778;27;115044;-79
2023/09/26 11:00:24;;;;;;;16.05;12.25;;;22.40;61.40;;;;;;5045084;27;115131;-79
2023/09/26 11:02:51;;;;;;;16.02;11.88;;;22.50;60.30;;;;;;5028007;27;114524;-79
2023/09/26 11:05:31;;;;;;;14.88;12.50;;;22.40;61.20;;;;;;5015451;27;114110;-79
2023/09/26 11:07:58;;;;;;;14.48;12.27;;;22.50;60.50;;;;;;5045395;27;115083;-79
2023/09/26 11:10:26;;;;;;;13.65;11.45;;;22.40;61.30;;;;;;5045400;27;114679;-79
2023/09/26 11:12:53;;;;;;;13.40;11.98;;;22.40;60.50;;;;;;5046175;27;114074;-79
2023/09/26 11:15:20;;;;;;;13.30;10.65;;;22.40;61.40;;;;;;5010812;27;114575;-79
2023/09/26 11:17:48;;;;;;;12.82;10.13;;;22.50;60.40;;;;;;5026487;27;115433;-79
2023/09/26 11:20:15;;;;;;;12.50;8.73;;;22.50;60.30;;;;;;5027260;27;114681;-79
2023/09/26 11:22:44;;;;;;;14.02;10.77;;;22.60;59.50;;;;;;5045871;27;114418;-79
2023/09/26 11:25:11;;;;;;;11.38;10.05;;;22.70;59.70;;;;;;5027964;27;114157;-79
2023/09/26 11:27:42;;;;;;;14.43;10.73;;;22.70;60.20;;;;;;5047230;27;115040;-80
2023/09/26 11:30:17;;;;;;;11.48;10.15;;;22.80;59.90;;;;;;5030519;27;114766;-79
2023/09/26 11:32:53;;;;;;;12.95;10.20;;;22.80;59.80;;;;;;5032498;27;114210;-79
2023/09/26 11:35:22;;;;;;;12.48;9.32;;;22.80;60.30;;;;;;5049375;27;114053;-82
2023/09/26 11:37:50;;;;;;;12.07;10.43;;;22.90;59.90;;;;;;5048508;27;115388;-80
2023/09/26 11:40:26;;;;;;;14.18;9.55;;;22.90;59.70;;;;;;5048410;27;114734;-79
2023/09/26 11:42:55;;;;;;;13.68;10.13;;;23.00;59.80;;;;;;5030118;27;114669;-80
2023/09/26 11:45:27;;;;;;;13.77;10.48;;;23.00;59.90;;;;;;5014939;27;114258;-79
2023/09/26 11:47:56;;;;;;;10.77;8.75;;;23.00;60.00;;;;;;4997103;27;114881;-80
2023/09/26 11:50:24;;;;;;;13.32;9.60;;;23.00;60.50;;;;;;5030531;27;114814;-79
2023/09/26 11:52:52;;;;;;;14.35;9.13;;;23.00;60.20;;;;;;5030453;27;114029;-80
2023/09/26 11:55:19;;;;;;;15.20;10.15;;;23.00;59.20;;;;;;5048984;27;114494;-80
2023/09/26 11:57:49;;;;;;;13.25;8.80;;;23.00;58.60;;;;;;5012597;27;118035;-79
2023/09/26 12:00:16;;;;;;;13.02;8.88;;;23.00;58.90;;;;;;5029992;27;114766;-79
2023/09/26 12:02:44;;;;;;;12.40;8.27;;;22.90;58.30;;;;;;5031010;27;114330;-79
2023/09/26 12:05:11;;;;;;;12.43;7.78;;;22.90;58.10;;;;;;5031005;27;114144;-79
2023/09/26 12:07:42;;;;;;;11.18;7.38;;;22.90;57.80;;;;;;5029117;27;115205;-79
2023/09/26 12:10:09;;;;;;;10.93;7.30;;;22.90;57.20;;;;;;5030250;27;114965;-80
2023/09/26 12:12:37;;;;;;;12.60;8.10;;;23.00;57.00;;;;;;5048861;27;114222;-78
2023/09/26 12:15:20;;;;;;;13.07;7.35;;;23.00;57.10;;;;;;5030287;27;114124;-79
2023/09/26 12:17:48;;;;;;;9.10;6.90;;;23.00;57.00;;;;;;5046741;27;116233;-80
2023/09/26 12:20:18;;;;;;;13.73;6.75;;;22.90;57.00;;;;;;5047526;27;114637;-80
2023/09/26 12:22:45;;;;;;;10.68;6.95;;;22.90;57.10;;;;;;5048599;27;114496;-79
2023/09/26 12:25:12;;;;;;;11.25;7.57;;;22.90;56.60;;;;;;5030483;27;114051;-80